createdAt,value
2023-05-12T00:01:46.213Z,2.30
2023-05-12T00:02:46.261Z,2.29
2023-05-12T00:03:46.365Z,1.84
2023-05-12T00:04:46.212Z,2.00
2023-05-12T00:06:46.159Z,2.56
2023-05-12T00:07:46.201Z,2.34
2023-05-12T00:08:46.209Z,1.91
2023-05-12T00:09:46.164Z,2.38
2023-05-12T00:10:46.160Z,2.16
2023-05-12T00:11:46.214Z,2.21
2023-05-12T00:12:46.222Z,2.67
2023-05-12T00:13:46.212Z,2.76
2023-05-12T00:14:46.241Z,2.52
2023-05-12T00:15:46.218Z,2.47
2023-05-12T00:16:46.295Z,2.51
2023-05-12T00:17:46.258Z,2.59
2023-05-12T00:18:46.226Z,3.10
2023-05-12T00:19:46.215Z,2.99
2023-05-12T00:20:46.186Z,3.32
2023-05-12T00:21:46.285Z,3.41
2023-05-12T00:22:46.232Z,3.27
2023-05-12T00:23:46.200Z,3.12
2023-05-12T00:24:46.208Z,3.63
2023-05-12T00:25:46.214Z,3.67
2023-05-12T00:28:46.255Z,3.45
2023-05-12T00:29:46.284Z,2.82
2023-05-12T00:31:46.258Z,3.32
2023-05-12T00:32:46.352Z,3.67
2023-05-12T00:34:46.215Z,2.93
2023-05-12T00:36:46.274Z,2.34
2023-05-12T00:37:46.261Z,2.72
2023-05-12T00:39:46.225Z,2.80
2023-05-12T00:41:46.272Z,3.23
2023-05-12T00:42:46.253Z,2.80
2023-05-12T00:43:46.266Z,3.12
2023-05-12T00:44:46.249Z,3.51
2023-05-12T00:45:46.368Z,2.89
2023-05-12T00:47:46.332Z,2.89
2023-05-12T00:48:46.283Z,2.59
2023-05-12T00:49:46.273Z,3.33
2023-05-12T00:50:46.304Z,3.41
2023-05-12T00:52:46.261Z,3.92
2023-05-12T00:53:50.024Z,3.20
2023-05-12T00:54:46.321Z,4.04
2023-05-12T00:56:46.334Z,3.63
2023-05-12T00:58:46.351Z,3.82
2023-05-12T00:59:46.337Z,4.08
2023-05-12T01:00:46.321Z,3.81
2023-05-12T01:01:46.351Z,4.10
2023-05-12T01:02:46.451Z,4.31
2023-05-12T01:03:46.422Z,4.09
2023-05-12T01:04:46.369Z,3.95
2023-05-12T01:05:46.323Z,4.09
2023-05-12T01:06:46.370Z,4.31
2023-05-12T01:08:46.374Z,4.49
2023-05-12T01:09:46.354Z,4.37
2023-05-12T01:10:46.325Z,4.66
2023-05-12T01:11:46.379Z,3.90
2023-05-12T01:13:46.356Z,3.87
2023-05-12T01:14:46.414Z,3.48
2023-05-12T01:16:46.423Z,3.68
2023-05-12T01:17:46.473Z,3.56
2023-05-12T01:18:46.357Z,3.35
2023-05-12T01:19:46.374Z,3.55
2023-05-12T01:20:46.396Z,3.45
2023-05-12T01:21:46.414Z,3.27
2023-05-12T01:22:46.405Z,3.38
2023-05-12T01:24:46.396Z,3.45
2023-05-12T01:27:46.448Z,4.11
2023-05-12T01:28:46.393Z,3.90
2023-05-12T01:29:46.427Z,3.79
2023-05-12T01:30:46.445Z,4.17
2023-05-12T01:31:46.503Z,4.03
2023-05-12T01:32:46.458Z,4.35
2023-05-12T01:33:46.436Z,5.25
2023-05-12T01:35:46.412Z,5.32
2023-05-12T01:38:46.435Z,5.53
2023-05-12T01:39:46.396Z,5.12
2023-05-12T01:42:46.472Z,5.76
2023-05-12T01:43:46.452Z,5.46
2023-05-12T01:44:46.438Z,5.22
2023-05-12T01:46:46.437Z,5.11
2023-05-12T01:47:46.530Z,4.37
2023-05-12T01:48:46.491Z,4.43
2023-05-12T01:50:46.479Z,3.52
2023-05-12T01:51:46.485Z,3.70
2023-05-12T01:52:46.447Z,3.42
2023-05-12T01:54:46.465Z,3.82
2023-05-12T01:55:46.489Z,3.21
2023-05-12T01:59:46.488Z,3.98
2023-05-12T02:00:46.458Z,3.33
2023-05-12T02:01:46.549Z,4.28
2023-05-12T02:02:46.564Z,4.97
2023-05-12T02:05:46.461Z,4.62
2023-05-12T02:08:46.496Z,4.50
2023-05-12T02:09:46.497Z,4.79
2023-05-12T02:10:46.453Z,4.24
2023-05-12T02:11:46.527Z,4.52
2023-05-12T02:15:46.522Z,4.31
2023-05-12T02:16:46.595Z,3.99
2023-05-12T02:17:46.609Z,4.29
2023-05-12T02:18:46.528Z,3.98
2023-05-12T02:19:46.547Z,4.75
2023-05-12T02:21:46.518Z,4.25
2023-05-12T02:22:46.562Z,4.81
2023-05-12T02:23:46.516Z,5.40
2023-05-12T02:24:46.559Z,4.89
2023-05-12T02:27:46.560Z,5.45
2023-05-12T02:28:46.514Z,5.12
2023-05-12T02:31:46.708Z,5.02
2023-05-12T02:32:46.621Z,6.00
2023-05-12T02:38:46.610Z,5.86
2023-05-12T02:39:46.614Z,5.51
2023-05-12T02:40:46.599Z,5.59
2023-05-12T02:42:46.625Z,5.46
2023-05-12T02:44:46.581Z,6.03
2023-05-12T02:45:46.601Z,4.55
2023-05-12T02:46:46.631Z,5.24
2023-05-12T02:47:46.630Z,4.91
2023-05-12T02:48:46.616Z,5.18
2023-05-12T02:49:46.607Z,6.05
2023-05-12T02:50:46.591Z,5.89
2023-05-12T02:53:46.594Z,6.15
2023-05-12T02:54:46.580Z,6.25
2023-05-12T02:56:46.648Z,6.58
2023-05-12T02:57:46.588Z,6.75
2023-05-12T02:59:46.645Z,6.80
2023-05-12T03:00:48.703Z,5.80
2023-05-12T03:01:46.724Z,6.23
2023-05-12T03:02:46.711Z,6.07
2023-05-12T03:03:46.836Z,6.26
2023-05-12T03:04:46.625Z,5.96
2023-05-12T03:05:46.631Z,6.27
2023-05-12T03:06:46.654Z,6.03
2023-05-12T03:07:46.651Z,5.96
2023-05-12T03:08:46.638Z,7.30
2023-05-12T03:10:46.616Z,6.77
2023-05-12T03:12:46.677Z,7.09
2023-05-12T03:13:46.702Z,7.62
2023-05-12T03:14:46.660Z,7.01
2023-05-12T03:16:46.710Z,7.57
2023-05-12T03:17:46.772Z,7.13
2023-05-12T03:19:46.689Z,6.37
2023-05-12T03:20:46.696Z,6.45
2023-05-12T03:22:46.709Z,7.76
2023-05-12T03:23:46.817Z,6.55
2023-05-12T03:24:46.723Z,6.90
2023-05-12T03:25:46.685Z,5.88
2023-05-12T03:26:46.686Z,7.20
2023-05-12T03:27:46.713Z,6.79
2023-05-12T03:28:46.695Z,7.31
2023-05-12T03:29:46.732Z,6.34
2023-05-12T03:30:46.740Z,6.52
2023-05-12T03:31:46.806Z,6.24
2023-05-12T03:32:46.705Z,6.85
2023-05-12T03:36:46.713Z,5.41
2023-05-12T03:37:46.711Z,5.77
2023-05-12T03:40:46.776Z,5.74
2023-05-12T03:42:46.749Z,5.06
2023-05-12T03:43:46.697Z,5.01
2023-05-12T03:44:46.719Z,4.71
2023-05-12T03:46:46.837Z,5.36
2023-05-12T03:47:46.819Z,5.17
2023-05-12T03:50:46.764Z,4.25
2023-05-12T03:51:46.765Z,4.30
2023-05-12T03:52:46.793Z,4.69
2023-05-12T03:53:46.778Z,4.54
2023-05-12T03:54:46.740Z,4.19
2023-05-12T03:56:46.804Z,4.66
2023-05-12T03:57:46.770Z,3.92
2023-05-12T03:59:46.762Z,4.86
2023-05-12T04:00:46.784Z,4.39
2023-05-12T04:04:46.787Z,4.07
2023-05-12T04:05:46.811Z,4.36
2023-05-12T04:06:46.800Z,4.08
2023-05-12T04:07:46.760Z,4.30
2023-05-12T04:08:46.793Z,4.04
2023-05-12T04:09:46.793Z,4.76
2023-05-12T04:10:46.811Z,5.00
2023-05-12T04:11:46.815Z,3.93
2023-05-12T04:13:46.846Z,4.51
2023-05-12T04:15:46.786Z,4.00
2023-05-12T04:16:46.830Z,4.20
2023-05-12T04:17:46.838Z,4.17
2023-05-12T04:18:46.918Z,4.13
2023-05-12T04:19:46.841Z,3.97
2023-05-12T04:24:47.130Z,4.09
2023-05-12T04:25:46.838Z,4.62
2023-05-12T04:32:46.978Z,4.86
2023-05-12T04:33:48.344Z,4.91
2023-05-12T04:36:46.886Z,5.36
2023-05-12T04:37:46.880Z,5.23
2023-05-12T04:38:46.856Z,5.32
2023-05-12T04:40:46.876Z,5.39
2023-05-12T04:41:46.866Z,5.53
2023-05-12T04:42:46.880Z,6.17
2023-05-12T04:44:46.880Z,5.66
2023-05-12T04:45:46.951Z,6.64
2023-05-12T04:47:46.973Z,7.75
2023-05-12T04:48:46.891Z,8.59
2023-05-12T04:50:46.959Z,8.73
2023-05-12T04:51:46.884Z,7.74
2023-05-12T04:53:46.942Z,8.39
2023-05-12T04:54:46.896Z,9.16
2023-05-12T04:55:46.915Z,8.25
2023-05-12T04:56:47.013Z,8.22
2023-05-12T04:57:46.937Z,8.52
2023-05-12T04:58:46.930Z,8.28
2023-05-12T05:00:46.950Z,7.64
2023-05-12T05:02:46.958Z,6.75
2023-05-12T05:03:46.999Z,7.75
2023-05-12T05:04:46.908Z,8.38
2023-05-12T05:05:46.942Z,8.27
2023-05-12T05:06:46.930Z,8.65
2023-05-12T05:07:46.937Z,7.84
2023-05-12T05:08:46.950Z,7.90
2023-05-12T05:09:46.976Z,7.72
2023-05-12T05:12:46.931Z,8.98
2023-05-12T05:13:46.967Z,9.09
2023-05-12T05:14:47.028Z,8.09
2023-05-12T05:15:46.944Z,8.20
2023-05-12T05:16:46.990Z,8.55
2023-05-12T05:17:47.108Z,8.72
2023-05-12T05:18:47.116Z,10.95
2023-05-12T05:19:57.428Z,10.21
2023-05-12T05:22:47.025Z,10.20
2023-05-12T05:23:46.978Z,9.76
2023-05-12T05:24:47.021Z,10.86
2023-05-12T05:25:46.949Z,11.06
2023-05-12T05:27:46.992Z,11.43
2023-05-12T05:30:47.042Z,10.84
2023-05-12T05:34:47.058Z,9.70
2023-05-12T05:35:47.034Z,9.37
2023-05-12T05:36:47.012Z,9.11
2023-05-12T05:37:47.016Z,8.20
2023-05-12T05:38:46.985Z,9.36
2023-05-12T05:39:47.042Z,8.67
2023-05-12T05:40:53.643Z,8.12
2023-05-12T05:41:47.027Z,9.54
2023-05-12T05:42:47.019Z,8.87
2023-05-12T05:43:47.017Z,8.66
2023-05-12T05:44:47.064Z,8.62
2023-05-12T05:45:47.050Z,9.24
2023-05-12T05:46:47.045Z,8.36
2023-05-12T05:47:47.130Z,8.20
2023-05-12T05:48:47.038Z,9.78
2023-05-12T05:49:47.048Z,8.38
2023-05-12T05:50:47.097Z,8.25
2023-05-12T05:51:47.051Z,7.39
2023-05-12T05:52:47.050Z,7.77
2023-05-12T05:53:47.069Z,6.95
2023-05-12T05:54:47.089Z,7.30
2023-05-12T05:55:47.087Z,7.16
2023-05-12T05:56:47.022Z,7.58
2023-05-12T05:57:47.080Z,8.14
2023-05-12T05:59:47.036Z,7.36
2023-05-12T06:00:47.097Z,7.09
2023-05-12T06:01:47.178Z,7.67
2023-05-12T06:02:47.211Z,6.76
2023-05-12T06:03:47.251Z,7.48
2023-05-12T06:05:47.100Z,6.89
2023-05-12T06:06:47.093Z,6.35
2023-05-12T06:07:47.093Z,6.63
2023-05-12T06:08:47.096Z,6.73
2023-05-12T06:09:47.097Z,6.19
2023-05-12T06:10:47.107Z,6.43
2023-05-12T06:11:47.098Z,7.08
2023-05-12T06:12:47.108Z,7.32
2023-05-12T06:13:47.113Z,6.70
2023-05-12T06:14:47.130Z,7.72
2023-05-12T06:15:47.105Z,7.16
2023-05-12T06:16:47.159Z,7.21
2023-05-12T06:17:47.112Z,8.15
2023-05-12T06:18:47.150Z,7.86
2023-05-12T06:19:47.121Z,8.46
2023-05-12T06:20:47.137Z,7.77
2023-05-12T06:21:47.125Z,7.47
2023-05-12T06:22:47.087Z,8.19
2023-05-12T06:23:47.132Z,8.01
2023-05-12T06:24:47.129Z,6.84
2023-05-12T06:25:47.095Z,8.70
2023-05-12T06:26:47.188Z,8.27
2023-05-12T06:27:47.109Z,8.25
2023-05-12T06:28:47.133Z,7.34
2023-05-12T06:29:47.163Z,7.24
2023-05-12T06:30:47.131Z,7.83
2023-05-12T06:31:47.200Z,6.03
2023-05-12T06:32:47.265Z,6.89
2023-05-12T06:33:47.234Z,7.19
2023-05-12T06:34:47.237Z,6.04
2023-05-12T06:36:47.202Z,6.01
2023-05-12T06:37:47.216Z,5.95
2023-05-12T06:38:47.134Z,5.70
2023-05-12T06:39:47.171Z,5.71
2023-05-12T06:40:47.239Z,5.46
2023-05-12T06:41:47.160Z,5.75
2023-05-12T06:42:47.185Z,5.36
2023-05-12T06:43:47.171Z,5.58
2023-05-12T06:44:47.198Z,5.59
2023-05-12T06:45:47.244Z,5.77
2023-05-12T06:46:47.271Z,6.12
2023-05-12T06:47:47.264Z,6.35
2023-05-12T06:48:47.155Z,7.37
2023-05-12T06:49:47.226Z,6.32
2023-05-12T06:50:47.214Z,6.65
2023-05-12T06:51:47.192Z,7.25
2023-05-12T06:52:47.242Z,7.71
2023-05-12T06:53:47.210Z,7.46
2023-05-12T06:54:47.190Z,7.35
2023-05-12T06:55:47.224Z,7.56
2023-05-12T06:56:47.211Z,7.65
2023-05-12T06:57:47.213Z,8.70
2023-05-12T06:58:47.216Z,8.33
2023-05-12T06:59:47.190Z,8.75
2023-05-12T07:00:47.236Z,9.00
2023-05-12T07:01:47.281Z,9.22
2023-05-12T07:02:47.282Z,9.18
2023-05-12T07:03:47.290Z,10.07
2023-05-12T07:04:47.200Z,9.60
2023-05-12T07:05:47.287Z,10.41
2023-05-12T07:06:47.263Z,8.98
2023-05-12T07:07:47.245Z,9.19
2023-05-12T07:08:47.251Z,9.82
2023-05-12T07:09:47.253Z,9.07
2023-05-12T07:10:47.260Z,8.17
2023-05-12T07:11:47.286Z,8.40
2023-05-12T07:12:47.247Z,8.11
2023-05-12T07:13:47.298Z,8.36
2023-05-12T07:14:47.276Z,8.46
2023-05-12T07:15:47.325Z,8.48
2023-05-12T07:16:47.284Z,7.92
2023-05-12T07:17:47.431Z,7.76
2023-05-12T07:18:47.305Z,7.49
2023-05-12T07:20:47.282Z,8.17
2023-05-12T07:21:47.288Z,7.19
2023-05-12T07:22:47.234Z,7.07
2023-05-12T07:23:47.330Z,6.96
2023-05-12T07:26:47.291Z,7.37
2023-05-12T07:27:47.311Z,6.79
2023-05-12T07:28:47.334Z,6.68
2023-05-12T07:29:47.315Z,7.07
2023-05-12T07:30:47.311Z,7.08
2023-05-12T07:31:47.439Z,7.63
2023-05-12T07:32:47.395Z,6.43
2023-05-12T07:33:47.344Z,6.32
2023-05-12T07:34:47.400Z,6.26
2023-05-12T07:35:47.271Z,6.25
2023-05-12T07:36:47.339Z,6.57
2023-05-12T07:38:47.318Z,6.32
2023-05-12T07:39:47.345Z,7.11
2023-05-12T07:40:47.382Z,6.38
2023-05-12T07:42:47.362Z,6.54
2023-05-12T07:43:47.300Z,6.12
2023-05-12T07:45:47.387Z,5.06
2023-05-12T07:46:47.398Z,5.85
2023-05-12T07:47:47.451Z,6.23
2023-05-12T07:48:47.316Z,6.15
2023-05-12T07:49:47.399Z,6.09
2023-05-12T07:50:47.353Z,5.95
2023-05-12T07:51:47.365Z,6.06
2023-05-12T07:52:47.397Z,6.34
2023-05-12T07:53:47.386Z,5.96
2023-05-12T07:54:47.368Z,5.43
2023-05-12T07:55:47.370Z,5.84
2023-05-12T07:56:47.339Z,5.61
2023-05-12T07:57:47.420Z,6.04
2023-05-12T07:58:47.757Z,6.01
2023-05-12T07:59:47.355Z,6.04
2023-05-12T08:00:47.410Z,5.55
2023-05-12T08:01:47.478Z,5.32
2023-05-12T08:02:47.774Z,5.58
2023-05-12T08:03:47.557Z,6.05
2023-05-12T08:04:47.383Z,5.27
2023-05-12T08:05:47.400Z,5.85
2023-05-12T08:06:47.415Z,5.38
2023-05-12T08:07:47.519Z,4.83
2023-05-12T08:08:47.450Z,4.75
2023-05-12T08:09:47.398Z,4.74
2023-05-12T08:10:47.448Z,4.60
2023-05-12T08:11:50.023Z,4.01
2023-05-12T08:12:47.417Z,4.45
2023-05-12T08:13:47.419Z,4.83
2023-05-12T08:14:47.428Z,4.68
2023-05-12T08:15:47.450Z,5.12
2023-05-12T08:16:47.440Z,5.05
2023-05-12T08:17:47.484Z,5.06
2023-05-12T08:18:47.489Z,4.56
2023-05-12T08:19:47.452Z,4.55
2023-05-12T08:20:47.482Z,4.79
2023-05-12T08:21:47.422Z,4.26
2023-05-12T08:22:47.434Z,4.20
2023-05-12T08:23:47.460Z,4.35
2023-05-12T08:24:47.449Z,3.77
2023-05-12T08:25:47.443Z,4.21
2023-05-12T08:26:47.504Z,3.52
2023-05-12T08:27:47.433Z,4.19
2023-05-12T08:28:47.493Z,4.13
2023-05-12T08:29:47.505Z,3.69
2023-05-12T08:30:47.520Z,4.04
2023-05-12T08:31:47.504Z,4.08
2023-05-12T08:32:47.526Z,4.27
2023-05-12T08:33:51.887Z,3.89
2023-05-12T08:34:47.460Z,4.24
2023-05-12T08:35:47.478Z,3.93
2023-05-12T08:36:47.505Z,4.31
2023-05-12T08:37:47.506Z,3.92
2023-05-12T08:38:47.513Z,3.70
2023-05-12T08:39:47.502Z,3.37
2023-05-12T08:40:47.460Z,3.82
2023-05-12T08:41:47.493Z,3.46
2023-05-12T08:42:47.489Z,3.54
2023-05-12T08:43:47.488Z,3.18
2023-05-12T08:44:47.503Z,3.55
2023-05-12T08:45:47.496Z,3.75
2023-05-12T08:46:47.630Z,3.77
2023-05-12T08:47:47.559Z,3.26
2023-05-12T08:48:47.468Z,3.95
2023-05-12T08:49:47.721Z,3.35
2023-05-12T08:50:47.507Z,3.43
2023-05-12T08:51:56.874Z,3.79
2023-05-12T08:52:47.521Z,3.85
2023-05-12T08:53:47.535Z,3.87
2023-05-12T08:54:55.593Z,3.64
2023-05-12T08:56:01.395Z,3.44
2023-05-12T08:57:47.581Z,3.56
2023-05-12T09:01:47.573Z,3.35
2023-05-12T09:02:53.991Z,3.20
2023-05-12T09:03:47.567Z,3.50
2023-05-12T09:04:47.587Z,3.27
2023-05-12T09:05:47.546Z,3.29
2023-05-12T09:06:47.570Z,3.34
2023-05-12T09:07:47.565Z,3.36
2023-05-12T09:08:47.604Z,3.55
2023-05-12T09:09:47.557Z,3.02
2023-05-12T09:10:47.580Z,3.31
2023-05-12T09:11:47.588Z,3.58
2023-05-12T09:12:47.593Z,3.01
2023-05-12T09:13:47.532Z,3.50
2023-05-12T09:14:47.541Z,3.56
2023-05-12T09:15:47.670Z,2.98
2023-05-12T09:16:47.654Z,3.65
2023-05-12T09:17:47.583Z,3.31
2023-05-12T09:18:47.609Z,3.34
2023-05-12T09:19:47.605Z,3.80
2023-05-12T09:20:47.587Z,3.34
2023-05-12T09:21:47.638Z,3.62
2023-05-12T09:22:47.598Z,3.43
2023-05-12T09:23:47.629Z,3.70
2023-05-12T09:24:47.649Z,3.74
2023-05-12T09:25:47.601Z,3.11
2023-05-12T09:26:47.602Z,3.04
2023-05-12T09:27:47.615Z,3.06
2023-05-12T09:28:47.617Z,3.41
2023-05-12T09:29:58.032Z,3.10
2023-05-12T09:30:47.594Z,3.05
2023-05-12T09:31:47.650Z,2.94
2023-05-12T09:32:47.652Z,2.93
2023-05-12T09:33:47.613Z,2.92
2023-05-12T09:34:47.918Z,2.76
2023-05-12T09:35:47.607Z,2.64
2023-05-12T09:37:47.614Z,2.43
2023-05-12T09:38:47.608Z,2.52
2023-05-12T09:39:47.660Z,2.33
2023-05-12T09:40:47.672Z,2.43
2023-05-12T09:41:47.644Z,2.37
2023-05-12T09:42:47.670Z,1.81
2023-05-12T09:43:47.645Z,2.40
2023-05-12T09:44:47.671Z,2.27
2023-05-12T09:45:47.869Z,1.98
2023-05-12T09:46:47.682Z,1.88
2023-05-12T09:47:47.751Z,1.79
2023-05-12T09:48:47.657Z,2.30
2023-05-12T09:49:47.715Z,2.00
2023-05-12T09:50:48.557Z,1.84
2023-05-12T09:51:47.639Z,2.01
2023-05-12T09:52:47.675Z,2.16
2023-05-12T09:53:47.637Z,1.72
2023-05-12T09:54:47.668Z,1.83
2023-05-12T09:55:47.705Z,1.94
2023-05-12T09:56:47.682Z,1.84
2023-05-12T09:57:47.687Z,1.96
2023-05-12T09:58:47.699Z,2.05
2023-05-12T09:59:47.679Z,1.45
2023-05-12T10:01:47.684Z,1.60
2023-05-12T10:02:47.769Z,1.66
2023-05-12T10:03:47.717Z,1.38
2023-05-12T10:04:47.789Z,1.72
2023-05-12T10:05:47.730Z,1.33
2023-05-12T10:06:47.693Z,1.53
2023-05-12T10:07:47.747Z,1.63
2023-05-12T10:08:47.709Z,1.30
2023-05-12T10:09:47.711Z,1.35
2023-05-12T10:10:47.741Z,1.89
2023-05-12T10:11:47.727Z,1.79
2023-05-12T10:12:47.750Z,1.63
2023-05-12T10:14:47.714Z,1.81
2023-05-12T10:15:47.749Z,1.81
2023-05-12T10:16:47.752Z,1.66
2023-05-12T10:17:47.871Z,1.23
2023-05-12T10:18:47.723Z,1.38
2023-05-12T10:19:47.712Z,1.45
2023-05-12T10:20:47.752Z,1.74
2023-05-12T10:21:47.777Z,1.58
2023-05-12T10:22:47.712Z,1.63
2023-05-12T10:23:47.749Z,1.21
2023-05-12T10:24:47.759Z,1.19
2023-05-12T10:26:47.705Z,1.09
2023-05-12T10:27:47.753Z,1.31
2023-05-12T10:28:47.756Z,1.45
2023-05-12T10:29:47.772Z,1.22
2023-05-12T10:30:48.728Z,1.22
2023-05-12T10:31:48.001Z,1.62
2023-05-12T10:32:47.829Z,1.29
2023-05-12T10:33:47.817Z,1.27
2023-05-12T10:34:47.806Z,1.50
2023-05-12T10:35:49.481Z,1.56
2023-05-12T10:36:47.818Z,1.59
2023-05-12T10:37:47.839Z,1.43
2023-05-12T10:38:47.811Z,1.28
2023-05-12T10:39:47.816Z,1.60
2023-05-12T10:40:47.794Z,1.62
2023-05-12T10:41:47.775Z,1.71
2023-05-12T10:42:47.767Z,1.49
2023-05-12T10:43:47.776Z,1.38
2023-05-12T10:44:47.857Z,1.44
2023-05-12T10:45:47.830Z,1.66
2023-05-12T10:46:47.954Z,1.51
2023-05-12T10:47:47.951Z,1.30
2023-05-12T10:48:47.804Z,1.50
2023-05-12T10:49:47.830Z,1.75
2023-05-12T10:50:47.819Z,1.70
2023-05-12T10:51:47.843Z,1.49
2023-05-12T10:52:47.844Z,1.82
2023-05-12T10:53:50.096Z,1.89
2023-05-12T10:54:47.861Z,1.66
2023-05-12T10:55:48.061Z,1.82
2023-05-12T10:56:48.156Z,1.68
2023-05-12T10:57:48.176Z,1.44
2023-05-12T10:58:48.041Z,1.66
2023-05-12T10:59:48.159Z,1.63
2023-05-12T11:00:48.642Z,1.74
2023-05-12T11:01:48.362Z,1.46
2023-05-12T11:03:48.591Z,1.82
2023-05-12T11:04:48.225Z,1.44
2023-05-12T11:05:48.959Z,1.84
2023-05-12T11:06:48.749Z,1.53
2023-05-12T11:07:48.180Z,1.63
2023-05-12T11:08:48.401Z,1.59
2023-05-12T11:09:57.866Z,1.86
2023-05-12T11:10:47.971Z,1.73
2023-05-12T11:11:47.981Z,1.65
2023-05-12T11:12:47.838Z,1.64
2023-05-12T11:13:47.886Z,1.53
2023-05-12T11:14:47.852Z,1.52
2023-05-12T11:15:47.940Z,1.48
2023-05-12T11:16:47.996Z,1.47
2023-05-12T11:17:47.905Z,1.48
2023-05-12T11:18:47.961Z,1.25
2023-05-12T11:19:47.927Z,1.41
2023-05-12T11:20:47.852Z,1.49
2023-05-12T11:21:47.907Z,1.56
2023-05-12T11:23:47.859Z,1.89
2023-05-12T11:24:47.902Z,1.49
2023-05-12T11:25:47.941Z,1.74
2023-05-12T11:26:47.946Z,1.57
2023-05-12T11:27:47.947Z,1.45
2023-05-12T11:28:47.921Z,2.17
2023-05-12T11:29:48.049Z,1.81
2023-05-12T11:30:47.926Z,1.86
2023-05-12T11:31:47.968Z,1.65
2023-05-12T11:32:48.026Z,1.62
2023-05-12T11:33:50.421Z,1.98
2023-05-12T11:35:47.937Z,1.53
2023-05-12T11:36:47.913Z,1.88
2023-05-12T11:37:47.977Z,1.78
2023-05-12T11:38:48.098Z,1.43
2023-05-12T11:39:47.985Z,1.69
2023-05-12T11:40:47.935Z,1.73
2023-05-12T11:41:47.949Z,1.64
2023-05-12T11:42:47.978Z,1.60
2023-05-12T11:43:47.925Z,1.49
2023-05-12T11:44:48.129Z,1.26
2023-05-12T11:45:48.043Z,1.45
2023-05-12T11:46:47.979Z,1.33
2023-05-12T11:47:48.005Z,1.75
2023-05-12T11:48:47.927Z,1.37
2023-05-12T11:49:48.046Z,1.52
2023-05-12T11:50:47.980Z,1.26
2023-05-12T11:51:47.957Z,1.28
2023-05-12T11:52:48.026Z,1.81
2023-05-12T11:53:47.974Z,1.51
2023-05-12T11:54:47.986Z,1.23
2023-05-12T11:55:48.013Z,0.94
2023-05-12T11:56:47.985Z,1.13
2023-05-12T11:57:48.038Z,1.47
2023-05-12T11:58:47.964Z,1.11
2023-05-12T11:59:48.025Z,1.31
2023-05-12T12:00:48.016Z,1.21
2023-05-12T12:02:48.080Z,1.25
2023-05-12T12:03:48.071Z,1.39
2023-05-12T12:04:48.013Z,1.46
2023-05-12T12:05:48.038Z,1.05
2023-05-12T12:06:47.971Z,1.04
2023-05-12T12:07:48.056Z,0.92
2023-05-12T12:08:48.056Z,1.42
2023-05-12T12:09:48.046Z,1.29
2023-05-12T12:10:48.040Z,0.94
2023-05-12T12:11:48.022Z,1.24
2023-05-12T12:12:48.052Z,0.98
2023-05-12T12:14:48.124Z,0.92
2023-05-12T12:15:48.100Z,0.93
2023-05-12T12:16:48.056Z,1.31
2023-05-12T12:17:48.077Z,1.29
2023-05-12T12:18:48.112Z,1.11
2023-05-12T12:19:48.041Z,0.89
2023-05-12T12:20:48.123Z,1.06
2023-05-12T12:21:48.067Z,1.03
2023-05-12T12:22:48.088Z,1.34
2023-05-12T12:23:51.503Z,1.14
2023-05-12T12:24:48.043Z,1.32
2023-05-12T12:25:48.095Z,1.47
2023-05-12T12:26:48.032Z,0.86
2023-05-12T12:27:48.124Z,1.08
2023-05-12T12:28:48.100Z,1.30
2023-05-12T12:29:48.060Z,1.12
2023-05-12T12:30:48.235Z,0.86
2023-05-12T12:31:48.178Z,1.07
2023-05-12T12:32:48.123Z,0.80
2023-05-12T12:33:48.116Z,1.32
2023-05-12T12:34:48.100Z,1.03
2023-05-12T12:35:48.136Z,1.05
2023-05-12T12:36:48.140Z,1.10
2023-05-12T12:37:48.099Z,0.93
2023-05-12T12:38:48.150Z,0.88
2023-05-12T12:39:48.127Z,1.01
2023-05-12T12:40:48.115Z,0.79
2023-05-12T12:41:48.198Z,1.27
2023-05-12T12:42:48.106Z,0.98
2023-05-12T12:43:48.121Z,0.76
2023-05-12T12:44:48.142Z,0.90
2023-05-12T12:45:48.095Z,1.21
2023-05-12T12:46:48.153Z,0.97
2023-05-12T12:47:48.172Z,0.96
2023-05-12T12:48:48.150Z,1.10
2023-05-12T12:49:48.167Z,0.95
2023-05-12T12:50:48.155Z,1.36
2023-05-12T12:51:48.139Z,1.08
2023-05-12T12:52:48.143Z,0.99
2023-05-12T12:53:48.168Z,1.08
2023-05-12T12:54:48.153Z,1.17
2023-05-12T12:55:48.098Z,1.49
2023-05-12T12:56:48.195Z,0.90
2023-05-12T12:57:48.149Z,1.23
2023-05-12T12:58:48.154Z,0.88
2023-05-12T12:59:48.188Z,1.11
2023-05-12T13:00:48.164Z,1.03
2023-05-12T13:01:48.181Z,0.97
2023-05-12T13:02:48.472Z,0.85
2023-05-12T13:03:48.119Z,0.75
2023-05-12T13:04:48.181Z,0.97
2023-05-12T13:06:48.196Z,0.99
2023-05-12T13:07:48.152Z,0.62
2023-05-12T13:08:48.150Z,1.18
2023-05-12T13:09:48.171Z,0.94
2023-05-12T13:10:48.152Z,0.91
2023-05-12T13:11:48.156Z,1.04
2023-05-12T13:12:48.214Z,0.93
2023-05-12T13:13:48.187Z,1.15
2023-05-12T13:14:48.277Z,1.01
2023-05-12T13:15:48.200Z,0.66
2023-05-12T13:16:48.229Z,1.01
2023-05-12T13:17:48.236Z,0.99
2023-05-12T13:18:48.309Z,1.06
2023-05-12T13:19:48.204Z,1.13
2023-05-12T13:20:48.236Z,1.19
2023-05-12T13:22:48.244Z,0.80
2023-05-12T13:23:48.267Z,0.98
2023-05-12T13:24:48.225Z,0.99
2023-05-12T13:25:48.236Z,1.13
2023-05-12T13:26:48.181Z,0.93
2023-05-12T13:27:48.257Z,1.11
2023-05-12T13:28:48.242Z,0.86
2023-05-12T13:29:48.226Z,1.09
2023-05-12T13:30:48.275Z,1.04
2023-05-12T13:31:48.270Z,0.73
2023-05-12T13:32:48.308Z,0.66
2023-05-12T13:33:48.208Z,0.68
2023-05-12T13:34:48.266Z,0.71
2023-05-12T13:35:48.249Z,0.71
2023-05-12T13:36:48.268Z,0.91
2023-05-12T13:37:48.274Z,0.74
2023-05-12T13:38:48.241Z,0.71
2023-05-12T13:39:48.259Z,0.77
2023-05-12T13:40:48.294Z,0.94
2023-05-12T13:41:48.281Z,0.77
2023-05-12T13:42:48.248Z,1.03
2023-05-12T13:43:48.303Z,0.96
2023-05-12T13:44:48.292Z,1.32
2023-05-12T13:45:48.274Z,0.84
2023-05-12T13:46:48.410Z,0.61
2023-05-12T13:47:48.274Z,1.01
2023-05-12T13:48:48.256Z,0.89
2023-05-12T13:49:48.315Z,0.65
2023-05-12T13:50:48.289Z,0.67
2023-05-12T13:51:48.295Z,1.03
2023-05-12T13:52:48.318Z,0.74
2023-05-12T13:53:48.328Z,1.04
2023-05-12T13:54:48.322Z,0.88
2023-05-12T13:55:48.279Z,0.90
2023-05-12T13:56:48.329Z,0.93
2023-05-12T13:57:48.307Z,0.97
2023-05-12T13:58:48.325Z,0.92
2023-05-12T13:59:48.313Z,1.09
2023-05-12T14:00:48.300Z,1.05
2023-05-12T14:01:48.350Z,1.32
2023-05-12T14:02:48.409Z,0.71
2023-05-12T14:03:48.325Z,0.84
2023-05-12T14:04:48.376Z,1.03
2023-05-12T14:05:48.296Z,1.04
2023-05-12T14:06:48.336Z,1.02
2023-05-12T14:07:48.296Z,0.61
2023-05-12T14:08:48.310Z,0.76
2023-05-12T14:09:48.367Z,1.02
2023-05-12T14:10:48.367Z,1.06
2023-05-12T14:11:48.346Z,0.90
2023-05-12T14:12:48.380Z,1.10
2023-05-12T14:13:48.328Z,0.95
2023-05-12T14:14:48.357Z,0.86
2023-05-12T14:15:49.624Z,0.66
2023-05-12T14:16:48.486Z,0.64
2023-05-12T14:17:48.483Z,0.98
2023-05-12T14:18:48.418Z,1.04
2023-05-12T14:19:48.380Z,0.65
2023-05-12T14:20:48.366Z,0.88
2023-05-12T14:21:48.339Z,0.87
2023-05-12T14:22:48.405Z,0.81
2023-05-12T14:23:51.114Z,0.71
2023-05-12T14:24:48.356Z,0.84
2023-05-12T14:25:48.408Z,0.68
2023-05-12T14:26:48.362Z,1.00
2023-05-12T14:27:48.482Z,0.76
2023-05-12T14:28:48.489Z,0.82
2023-05-12T14:29:48.414Z,0.81
2023-05-12T14:30:48.539Z,0.92
2023-05-12T14:31:48.394Z,1.33
2023-05-12T14:32:48.462Z,1.43
2023-05-12T14:33:48.436Z,1.06
2023-05-12T14:34:48.371Z,1.27
2023-05-12T14:35:59.388Z,1.51
2023-05-12T14:36:48.435Z,1.16
2023-05-12T14:37:48.431Z,0.98
2023-05-12T14:38:48.412Z,1.02
2023-05-12T14:39:48.404Z,1.46
2023-05-12T14:40:48.455Z,1.04
2023-05-12T14:41:48.436Z,1.08
2023-05-12T14:42:48.435Z,1.41
2023-05-12T14:43:48.403Z,1.03
2023-05-12T14:44:48.425Z,0.89
2023-05-12T14:45:48.465Z,1.33
2023-05-12T14:46:48.436Z,1.32
2023-05-12T14:47:48.472Z,1.04
2023-05-12T14:49:48.473Z,0.93
2023-05-12T14:50:48.455Z,1.06
2023-05-12T14:51:48.486Z,1.47
2023-05-12T14:53:48.472Z,1.85
2023-05-12T14:54:48.492Z,1.46
2023-05-12T14:55:48.437Z,1.25
2023-05-12T14:56:48.457Z,1.12
2023-05-12T14:57:48.449Z,1.40
2023-05-12T14:59:48.470Z,1.17
2023-05-12T15:00:48.502Z,1.17
2023-05-12T15:01:48.499Z,1.53
2023-05-12T15:02:48.581Z,1.45
2023-05-12T15:03:48.643Z,1.54
2023-05-12T15:04:48.517Z,1.36
2023-05-12T15:06:04.763Z,1.40
2023-05-12T15:06:48.487Z,1.29
2023-05-12T15:07:48.490Z,1.16
2023-05-12T15:08:48.462Z,1.29
2023-05-12T15:09:48.471Z,1.17
2023-05-12T15:10:48.503Z,1.10
2023-05-12T15:11:48.523Z,1.02
2023-05-12T15:12:48.515Z,0.90
2023-05-12T15:13:48.465Z,0.98
2023-05-12T15:14:48.508Z,1.01
2023-05-12T15:15:48.645Z,0.86
2023-05-12T15:16:48.613Z,1.00
2023-05-12T15:17:48.545Z,0.90
2023-05-12T15:18:48.530Z,1.12
2023-05-12T15:19:48.537Z,0.85
2023-05-12T15:20:48.522Z,0.96
2023-05-12T15:21:48.523Z,0.95
2023-05-12T15:22:48.542Z,0.83
2023-05-12T15:24:48.564Z,1.00
2023-05-12T15:25:48.556Z,1.07
2023-05-12T15:26:48.541Z,1.01
2023-05-12T15:27:48.576Z,0.94
2023-05-12T15:28:48.536Z,0.69
2023-05-12T15:29:48.564Z,1.11